createdAt,value
2017-06-18T00:02:20.462Z,54.20
2017-06-18T00:04:48.331Z,54.60
2017-06-18T00:07:16.196Z,54.20
2017-06-18T00:09:44.065Z,54.20
2017-06-18T00:12:11.932Z,54.60
2017-06-18T00:14:39.756Z,54.30
2017-06-18T00:17:07.668Z,54.60
2017-06-18T00:19:35.527Z,54.40
2017-06-18T00:22:03.401Z,54.40
2017-06-18T00:24:31.272Z,54.50
2017-06-18T00:26:59.136Z,54.30
2017-06-18T00:29:27.001Z,54.20
2017-06-18T00:31:54.867Z,54.40
2017-06-18T00:34:22.739Z,54.30
2017-06-18T00:36:50.601Z,54.10
2017-06-18T00:39:18.461Z,54.20
2017-06-18T00:41:46.330Z,53.90
2017-06-18T00:44:14.197Z,54.10
2017-06-18T00:46:42.063Z,53.90
2017-06-18T00:49:09.939Z,54.00
2017-06-18T00:51:37.799Z,53.70
2017-06-18T00:54:05.669Z,54.10
2017-06-18T00:56:33.374Z,53.80
2017-06-18T00:59:01.198Z,53.70
2017-06-18T01:01:29.058Z,53.60
2017-06-18T01:03:56.928Z,53.90
2017-06-18T01:06:24.798Z,53.90
2017-06-18T01:08:52.627Z,53.90
2017-06-18T01:11:20.409Z,53.70
2017-06-18T01:13:48.173Z,53.70
2017-06-18T01:16:15.938Z,53.90
2017-06-18T01:18:43.567Z,54.00
2017-06-18T01:21:11.225Z,53.70
2017-06-18T01:23:38.941Z,53.80
2017-06-18T01:26:06.606Z,53.90
2017-06-18T01:28:34.349Z,53.80
2017-06-18T01:31:01.978Z,54.10
2017-06-18T01:33:29.696Z,54.00
2017-06-18T01:35:57.314Z,54.60
2017-06-18T01:38:25.019Z,54.00
2017-06-18T01:40:52.679Z,54.50
2017-06-18T01:43:20.751Z,54.30
2017-06-18T01:45:48.498Z,54.30
2017-06-18T01:48:16.118Z,54.70
2017-06-18T01:50:43.840Z,54.40
2017-06-18T01:53:11.500Z,54.30
2017-06-18T01:55:39.346Z,54.30
2017-06-18T01:58:06.973Z,54.60
2017-06-18T02:00:34.692Z,54.50
2017-06-18T02:03:02.434Z,54.70
2017-06-18T02:05:30.093Z,54.50
2017-06-18T02:07:57.742Z,54.80
2017-06-18T02:10:25.383Z,54.80
2017-06-18T02:12:53.081Z,54.80
2017-06-18T02:15:20.846Z,54.70
2017-06-18T02:17:48.631Z,54.30
2017-06-18T02:20:16.376Z,54.40
2017-06-18T02:22:44.052Z,54.60
2017-06-18T02:25:11.905Z,54.90
2017-06-18T02:27:40.588Z,54.90
2017-06-18T02:30:08.253Z,54.80
2017-06-18T02:32:35.936Z,54.60
2017-06-18T02:35:03.557Z,54.80
2017-06-18T02:37:31.339Z,55.00
2017-06-18T02:39:59.102Z,54.90
2017-06-18T02:42:26.749Z,55.00
2017-06-18T02:44:54.528Z,55.00
2017-06-18T02:47:22.316Z,55.20
2017-06-18T02:49:50.058Z,55.10
2017-06-18T02:52:17.821Z,55.10
2017-06-18T02:54:45.468Z,55.70
2017-06-18T02:57:13.166Z,55.20
2017-06-18T02:59:40.909Z,55.50
2017-06-18T03:02:10.022Z,55.60
2017-06-18T03:04:37.789Z,55.40
2017-06-18T03:07:05.409Z,55.70
2017-06-18T03:09:33.195Z,55.60
2017-06-18T03:12:00.850Z,55.80
2017-06-18T03:14:28.469Z,56.00
2017-06-18T03:16:57.001Z,56.40
2017-06-18T03:19:24.763Z,56.20
2017-06-18T03:22:01.422Z,56.20
2017-06-18T03:24:29.041Z,56.50
2017-06-18T03:26:57.494Z,57.30
2017-06-18T03:29:25.267Z,56.60
2017-06-18T03:31:52.927Z,56.80
2017-06-18T03:34:20.770Z,56.40
2017-06-18T03:36:48.430Z,56.40
2017-06-18T03:39:16.298Z,56.40
2017-06-18T03:41:43.935Z,56.40
2017-06-18T03:44:11.571Z,56.40
2017-06-18T03:46:39.989Z,56.80
2017-06-18T03:49:07.610Z,57.20
2017-06-18T03:51:36.050Z,56.70
2017-06-18T03:54:03.677Z,56.60
2017-06-18T03:56:31.297Z,56.60
2017-06-18T03:58:59.156Z,57.00
2017-06-18T04:01:26.787Z,57.30
2017-06-18T04:03:54.475Z,56.90
2017-06-18T04:06:22.217Z,57.00
2017-06-18T04:08:49.892Z,57.10
2017-06-18T04:11:17.541Z,57.00
2017-06-18T04:13:45.217Z,57.20
2017-06-18T04:16:12.981Z,57.90
2017-06-18T04:18:40.605Z,57.20
2017-06-18T04:21:08.225Z,57.50
2017-06-18T04:23:36.769Z,57.60
2017-06-18T04:26:04.450Z,57.60
2017-06-18T04:28:32.124Z,57.50
2017-06-18T04:30:59.754Z,57.50
2017-06-18T04:33:27.440Z,57.40
2017-06-18T04:35:55.089Z,57.60
2017-06-18T04:38:22.844Z,57.60
2017-06-18T04:40:50.636Z,57.70
2017-06-18T04:43:18.257Z,57.40
2017-06-18T04:45:45.876Z,57.50
2017-06-18T04:48:14.293Z,57.90
2017-06-18T04:50:41.922Z,57.80
2017-06-18T04:53:10.353Z,57.50
2017-06-18T04:55:38.035Z,57.50
2017-06-18T04:58:05.793Z,57.80
2017-06-18T05:00:33.644Z,57.90
2017-06-18T05:03:01.414Z,57.90
2017-06-18T05:05:29.090Z,58.00
2017-06-18T05:07:56.954Z,57.70
2017-06-18T05:10:24.701Z,58.10
2017-06-18T05:12:52.362Z,57.90
2017-06-18T05:15:19.990Z,57.80
2017-06-18T05:17:47.789Z,57.90
2017-06-18T05:20:15.450Z,58.10
2017-06-18T05:22:43.135Z,58.10
2017-06-18T05:25:10.789Z,58.10
2017-06-18T05:27:38.642Z,58.10
2017-06-18T05:30:06.315Z,58.00
2017-06-18T05:32:33.986Z,58.00
2017-06-18T05:35:01.609Z,58.40
2017-06-18T05:37:29.391Z,58.20
2017-06-18T05:39:57.051Z,58.20
2017-06-18T05:42:24.841Z,58.40
2017-06-18T05:44:52.493Z,59.10
2017-06-18T05:47:20.117Z,58.30
2017-06-18T05:49:47.798Z,58.00
2017-06-18T05:52:15.462Z,58.20
2017-06-18T05:54:43.228Z,58.40
2017-06-18T05:57:10.921Z,58.40
2017-06-18T05:59:38.565Z,58.30
2017-06-18T06:02:06.339Z,58.50
2017-06-18T06:04:34.186Z,58.40
2017-06-18T06:07:01.877Z,58.50
2017-06-18T06:09:30.428Z,58.20
2017-06-18T06:11:58.054Z,58.30
2017-06-18T06:14:25.853Z,58.50
2017-06-18T06:16:53.618Z,58.60
2017-06-18T06:19:21.418Z,58.50
2017-06-18T06:21:49.888Z,58.40
2017-06-18T06:24:17.528Z,58.30
2017-06-18T06:26:45.203Z,58.50
2017-06-18T06:29:12.829Z,58.60
2017-06-18T06:31:40.506Z,58.80
2017-06-18T06:34:08.171Z,58.60
2017-06-18T06:36:35.792Z,58.50
2017-06-18T06:39:03.599Z,58.50
2017-06-18T06:41:31.363Z,58.50
2017-06-18T06:43:59.127Z,58.50
2017-06-18T06:46:26.745Z,58.50
2017-06-18T06:48:54.554Z,58.50
2017-06-18T06:51:22.316Z,58.50
2017-06-18T06:53:49.978Z,58.70
2017-06-18T06:56:17.645Z,58.70
2017-06-18T06:58:45.277Z,58.60
2017-06-18T07:01:12.917Z,58.70
2017-06-18T07:03:41.376Z,58.40
2017-06-18T07:06:09.009Z,59.00
2017-06-18T07:08:36.681Z,58.60
2017-06-18T07:11:04.433Z,58.50
2017-06-18T07:13:32.061Z,58.40
2017-06-18T07:15:59.779Z,58.40
2017-06-18T07:18:27.519Z,58.30
2017-06-18T07:20:55.184Z,58.30
2017-06-18T07:23:22.947Z,58.40
2017-06-18T07:25:50.707Z,58.50
2017-06-18T07:28:18.472Z,58.40
2017-06-18T07:30:46.097Z,58.50
2017-06-18T07:33:14.515Z,58.60
2017-06-18T07:35:42.189Z,58.50
2017-06-18T07:38:09.855Z,58.40
2017-06-18T07:40:37.599Z,58.40
2017-06-18T07:43:05.367Z,58.40
2017-06-18T07:45:33.239Z,58.50
2017-06-18T07:48:00.895Z,58.50
2017-06-18T07:50:28.517Z,58.40
2017-06-18T07:52:56.319Z,58.60
2017-06-18T07:55:23.984Z,58.20
2017-06-18T07:57:51.747Z,58.20
2017-06-18T08:00:19.535Z,58.10
2017-06-18T08:02:47.168Z,58.10
2017-06-18T08:05:14.822Z,57.80
2017-06-18T08:07:42.599Z,58.00
2017-06-18T08:10:10.383Z,57.90
2017-06-18T08:12:38.230Z,57.90
2017-06-18T08:15:05.850Z,58.00
2017-06-18T08:17:33.656Z,57.80
2017-06-18T08:20:01.339Z,57.70
2017-06-18T08:22:29.006Z,57.60
2017-06-18T08:24:56.744Z,57.60
2017-06-18T08:27:24.410Z,58.20
2017-06-18T08:29:52.168Z,57.50
2017-06-18T08:32:19.829Z,57.50
2017-06-18T08:34:47.597Z,57.50
2017-06-18T08:37:15.480Z,57.10
2017-06-18T08:39:43.226Z,57.10
2017-06-18T08:42:10.991Z,57.10
2017-06-18T08:44:38.630Z,57.00
2017-06-18T08:47:06.301Z,56.80
2017-06-18T08:49:33.921Z,56.60
2017-06-18T08:52:02.457Z,56.60
2017-06-18T08:54:30.221Z,56.60
2017-06-18T08:56:57.841Z,56.50
2017-06-18T08:59:25.647Z,56.20
2017-06-18T09:01:53.309Z,56.20
2017-06-18T09:04:20.933Z,56.20
2017-06-18T09:06:48.585Z,56.20
2017-06-18T09:09:17.012Z,56.20
2017-06-18T09:11:44.790Z,56.20
2017-06-18T09:14:12.413Z,56.10
2017-06-18T09:16:40.206Z,56.10
2017-06-18T09:19:07.863Z,56.00
2017-06-18T09:21:35.486Z,55.90
2017-06-18T09:24:03.290Z,56.00
2017-06-18T09:26:30.954Z,56.20
2017-06-18T09:28:58.717Z,56.00
2017-06-18T09:31:26.399Z,55.80
2017-06-18T09:33:54.054Z,55.20
2017-06-18T09:36:21.717Z,55.30
2017-06-18T09:38:49.363Z,55.00
2017-06-18T09:41:16.986Z,55.00
2017-06-18T09:43:44.704Z,55.00
2017-06-18T09:46:12.330Z,55.10
2017-06-18T09:48:40.168Z,55.00
2017-06-18T09:51:08.609Z,55.40
2017-06-18T09:53:36.234Z,55.40
2017-06-18T09:56:04.022Z,54.90
2017-06-18T09:58:31.682Z,55.10
2017-06-18T10:00:59.353Z,54.40
2017-06-18T10:03:27.002Z,54.40
2017-06-18T10:05:54.667Z,54.70
2017-06-18T10:08:22.429Z,53.90
2017-06-18T10:10:50.196Z,54.20
2017-06-18T10:13:17.983Z,54.00
2017-06-18T10:15:45.827Z,54.10
2017-06-18T10:18:13.686Z,53.50
2017-06-18T10:20:41.366Z,53.40
2017-06-18T10:23:14.820Z,53.00
2017-06-18T10:25:42.533Z,53.40
2017-06-18T10:28:10.173Z,53.60
2017-06-18T10:30:37.793Z,52.80
2017-06-18T10:33:05.517Z,53.10
2017-06-18T10:35:33.143Z,52.80
2017-06-18T10:38:00.770Z,52.80
2017-06-18T10:40:29.217Z,52.40
2017-06-18T10:42:56.967Z,52.40
2017-06-18T10:45:24.589Z,52.30
2017-06-18T10:47:52.394Z,51.90
2017-06-18T10:50:20.031Z,51.90
2017-06-18T10:52:47.654Z,51.60
2017-06-18T10:55:16.085Z,51.40
2017-06-18T10:57:43.710Z,51.30
2017-06-18T11:00:12.238Z,51.50
2017-06-18T11:02:40.028Z,51.50
2017-06-18T11:05:07.682Z,50.50
2017-06-18T11:07:35.348Z,50.20
2017-06-18T11:10:03.017Z,50.10
2017-06-18T11:12:30.666Z,50.30
2017-06-18T11:14:58.329Z,50.00
2017-06-18T11:17:26.074Z,50.00
2017-06-18T11:19:53.738Z,50.10
2017-06-18T11:22:21.405Z,50.30
2017-06-18T11:24:49.030Z,50.10
2017-06-18T11:27:16.728Z,50.00
2017-06-18T11:29:44.397Z,50.10
2017-06-18T11:32:12.149Z,49.90
2017-06-18T11:34:39.914Z,49.40
2017-06-18T11:37:07.537Z,49.10
2017-06-18T11:39:35.238Z,48.00
2017-06-18T11:42:03.024Z,48.40
2017-06-18T11:44:30.766Z,48.30
2017-06-18T11:46:58.632Z,47.00
2017-06-18T11:49:26.315Z,47.20
2017-06-18T11:51:53.979Z,46.80
2017-06-18T11:54:21.625Z,45.90
2017-06-18T11:56:49.380Z,45.80
2017-06-18T11:59:17.046Z,46.50
2017-06-18T12:01:44.728Z,45.90
2017-06-18T12:04:12.355Z,45.40
2017-06-18T12:06:40.132Z,45.80
2017-06-18T12:09:07.761Z,45.20
2017-06-18T12:11:35.454Z,45.10
2017-06-18T12:14:03.220Z,44.50
2017-06-18T12:16:30.893Z,44.50
2017-06-18T12:18:58.545Z,44.90
2017-06-18T12:21:26.222Z,44.80
2017-06-18T12:23:53.991Z,44.20
2017-06-18T12:26:21.857Z,44.40
2017-06-18T12:28:49.722Z,44.30
2017-06-18T12:31:17.527Z,44.70
2017-06-18T12:33:45.332Z,43.20
2017-06-18T12:36:15.513Z,44.00
2017-06-18T12:38:44.706Z,43.80
2017-06-18T12:41:12.438Z,44.10
2017-06-18T12:43:40.280Z,43.20
2017-06-18T12:46:07.897Z,43.40
2017-06-18T12:48:35.577Z,44.00
2017-06-18T12:51:03.198Z,43.10
2017-06-18T12:53:31.604Z,42.50
2017-06-18T12:55:59.321Z,42.80
2017-06-18T12:58:26.945Z,42.00
2017-06-18T13:00:54.610Z,42.40
2017-06-18T13:03:22.229Z,42.20
2017-06-18T13:05:49.853Z,42.00
2017-06-18T13:08:17.567Z,42.00
2017-06-18T13:10:46.012Z,42.30
2017-06-18T13:13:14.067Z,42.20
2017-06-18T13:15:41.686Z,43.10
2017-06-18T13:18:09.309Z,43.00
2017-06-18T13:20:37.053Z,42.50
2017-06-18T13:23:04.736Z,42.80
2017-06-18T13:25:32.478Z,42.50
2017-06-18T13:28:29.973Z,41.40
2017-06-18T13:30:57.717Z,41.40
2017-06-18T13:33:25.388Z,41.60
2017-06-18T13:35:53.013Z,40.40
2017-06-18T13:38:20.673Z,41.00
2017-06-18T13:40:48.298Z,40.60
2017-06-18T13:43:16.728Z,40.60
2017-06-18T13:45:44.494Z,40.60
2017-06-18T13:48:12.281Z,39.90
2017-06-18T13:50:40.021Z,39.90
2017-06-18T13:53:07.788Z,39.90
2017-06-18T13:55:35.432Z,40.40
2017-06-18T13:58:03.130Z,40.20
2017-06-18T14:00:30.981Z,39.40
2017-06-18T14:02:58.609Z,39.80
2017-06-18T14:05:26.262Z,40.10
2017-06-18T14:07:53.917Z,40.20
2017-06-18T14:10:21.542Z,40.70
2017-06-18T14:12:49.284Z,40.60
2017-06-18T14:15:17.048Z,38.80
2017-06-18T14:17:44.736Z,38.40
2017-06-18T14:20:12.578Z,38.50
2017-06-18T14:22:40.257Z,38.90
2017-06-18T14:25:07.930Z,39.20
2017-06-18T14:27:35.667Z,39.40
2017-06-18T14:30:03.431Z,39.00
2017-06-18T14:32:31.115Z,38.50
2017-06-18T14:34:58.863Z,38.50
2017-06-18T14:37:26.634Z,39.40
2017-06-18T14:39:54.272Z,39.40
2017-06-18T14:42:22.075Z,39.20
2017-06-18T14:44:49.725Z,39.30
2017-06-18T14:47:17.391Z,38.80
2017-06-18T14:49:45.132Z,39.00
2017-06-18T14:52:12.899Z,39.10
2017-06-18T14:54:40.663Z,40.60
2017-06-18T14:57:08.309Z,40.20
2017-06-18T14:59:36.008Z,40.70
2017-06-18T15:02:03.771Z,39.00
2017-06-18T15:04:31.435Z,38.80
2017-06-18T15:06:59.178Z,39.10
2017-06-18T15:09:26.942Z,39.20
2017-06-18T15:11:54.707Z,38.90
2017-06-18T15:14:22.472Z,39.00
2017-06-18T15:16:50.098Z,39.30
2017-06-18T15:19:17.815Z,39.40
2017-06-18T15:21:45.661Z,39.50
2017-06-18T15:24:13.422Z,40.00
2017-06-18T15:26:42.345Z,40.10
2017-06-18T15:29:10.078Z,39.90
2017-06-18T15:31:37.843Z,39.20
2017-06-18T15:34:05.462Z,39.70
2017-06-18T15:36:33.183Z,39.70
2017-06-18T15:39:00.841Z,40.60
2017-06-18T15:41:28.602Z,40.00
2017-06-18T15:43:56.357Z,40.00
2017-06-18T15:46:23.978Z,40.00
2017-06-18T15:48:51.654Z,40.00
2017-06-18T15:51:19.295Z,39.90
2017-06-18T15:53:47.119Z,40.10
2017-06-18T15:56:14.871Z,40.20
2017-06-18T15:58:42.555Z,40.10
2017-06-18T16:01:10.235Z,41.40
2017-06-18T16:03:38.061Z,41.00
2017-06-18T16:06:05.743Z,40.40
2017-06-18T16:08:33.550Z,40.60
2017-06-18T16:11:01.354Z,41.60
2017-06-18T16:13:29.023Z,41.20
2017-06-18T16:15:56.694Z,40.80
2017-06-18T16:18:24.442Z,40.50
2017-06-18T16:20:52.122Z,40.80
2017-06-18T16:23:19.800Z,40.40
2017-06-18T16:25:48.136Z,40.30
2017-06-18T16:28:16.510Z,40.60
2017-06-18T16:30:44.805Z,40.40
2017-06-18T16:33:12.582Z,40.90
2017-06-18T16:35:40.440Z,41.90
2017-06-18T16:38:08.196Z,41.20
2017-06-18T16:40:35.881Z,41.70
2017-06-18T16:43:03.936Z,41.30
2017-06-18T16:45:31.797Z,40.90
2017-06-18T16:47:59.482Z,41.30
2017-06-18T16:50:27.265Z,42.20
2017-06-18T16:52:55.199Z,42.70
2017-06-18T16:55:22.826Z,42.20
2017-06-18T16:57:50.496Z,41.60
2017-06-18T17:00:18.445Z,41.30
2017-06-18T17:02:46.156Z,42.50
2017-06-18T17:05:13.784Z,41.00
2017-06-18T17:07:41.569Z,41.20
2017-06-18T17:10:09.334Z,41.50
2017-06-18T17:12:36.997Z,41.50
2017-06-18T17:15:04.864Z,41.70
2017-06-18T17:17:32.489Z,41.70
2017-06-18T17:20:00.202Z,42.50
2017-06-18T17:22:27.952Z,42.90
2017-06-18T17:24:57.528Z,42.90
2017-06-18T17:27:25.363Z,42.70
2017-06-18T17:29:53.818Z,43.00
2017-06-18T17:32:21.498Z,42.90
2017-06-18T17:34:49.158Z,43.80
2017-06-18T17:37:16.891Z,43.10
2017-06-18T17:39:44.568Z,43.20
2017-06-18T17:42:12.197Z,43.00
2017-06-18T17:44:39.901Z,43.30
2017-06-18T17:47:07.665Z,43.50
2017-06-18T17:49:35.403Z,44.00
2017-06-18T17:52:03.077Z,43.70
2017-06-18T17:54:30.731Z,43.80
2017-06-18T17:56:58.386Z,44.00
2017-06-18T17:59:26.040Z,44.20
2017-06-18T18:01:53.731Z,44.00
2017-06-18T18:04:21.401Z,44.20
2017-06-18T18:06:49.243Z,44.30
2017-06-18T18:09:16.927Z,44.50
2017-06-18T18:11:44.773Z,44.60
2017-06-18T18:14:12.397Z,44.80
2017-06-18T18:16:40.198Z,44.70
2017-06-18T18:19:08.065Z,44.70
2017-06-18T18:21:35.686Z,45.00
2017-06-18T18:24:03.491Z,45.20
2017-06-18T18:26:31.253Z,45.20
2017-06-18T18:28:59.020Z,45.10
2017-06-18T18:31:26.702Z,45.30
2017-06-18T18:33:54.444Z,45.10
2017-06-18T18:36:22.066Z,45.10
2017-06-18T18:38:49.872Z,45.00
2017-06-18T18:41:17.502Z,44.90
2017-06-18T18:43:45.298Z,45.10
2017-06-18T18:46:13.083Z,45.20
2017-06-18T18:48:40.927Z,45.20
2017-06-18T18:51:08.716Z,45.20
2017-06-18T18:53:36.369Z,45.20
2017-06-18T18:56:04.039Z,45.40
2017-06-18T18:58:31.686Z,45.60
2017-06-18T19:00:59.353Z,45.70
2017-06-18T19:03:27.031Z,45.90
2017-06-18T19:05:54.658Z,46.00
2017-06-18T19:08:22.530Z,46.00
2017-06-18T19:10:50.309Z,46.20
2017-06-18T19:13:17.933Z,46.20
2017-06-18T19:15:45.638Z,46.20
2017-06-18T19:18:13.381Z,46.30
2017-06-18T19:20:41.148Z,46.50
2017-06-18T19:23:08.931Z,46.70
2017-06-18T19:25:36.676Z,46.80
2017-06-18T19:28:04.543Z,46.80
2017-06-18T19:30:32.171Z,46.90
2017-06-18T19:32:59.789Z,47.00
2017-06-18T19:35:27.433Z,47.10
2017-06-18T19:37:55.058Z,47.20
2017-06-18T19:40:22.766Z,47.30
2017-06-18T19:42:50.426Z,47.20
2017-06-18T19:45:18.180Z,47.20
2017-06-18T19:47:45.825Z,47.40
2017-06-18T19:50:13.446Z,47.40
2017-06-18T19:52:42.082Z,47.50
2017-06-18T19:55:09.705Z,47.40
2017-06-18T19:57:37.509Z,47.50
2017-06-18T20:00:05.185Z,47.60
2017-06-18T20:02:32.935Z,47.70
2017-06-18T20:05:00.806Z,47.80
2017-06-18T20:07:28.448Z,48.00
2017-06-18T20:09:56.150Z,48.20
2017-06-18T20:12:23.801Z,48.30
2017-06-18T20:14:51.426Z,48.50
2017-06-18T20:17:19.214Z,48.50
2017-06-18T20:19:46.890Z,48.50
2017-06-18T20:22:14.541Z,48.60
2017-06-18T20:24:42.224Z,48.70
2017-06-18T20:27:09.861Z,48.70
2017-06-18T20:29:37.625Z,48.70
2017-06-18T20:32:05.246Z,48.80
2017-06-18T20:34:32.975Z,48.90
2017-06-18T20:37:00.816Z,48.90
2017-06-18T20:39:28.581Z,49.00
2017-06-18T20:41:56.257Z,49.10
2017-06-18T20:44:23.934Z,49.20
2017-06-18T20:46:51.668Z,49.20
2017-06-18T20:49:19.437Z,49.30
2017-06-18T20:51:47.110Z,49.40
2017-06-18T20:54:14.778Z,49.50
2017-06-18T20:56:42.519Z,49.70
2017-06-18T20:59:10.142Z,49.80
2017-06-18T21:01:37.946Z,49.90
2017-06-18T21:04:05.572Z,50.20
2017-06-18T21:06:33.472Z,50.20
2017-06-18T21:09:01.245Z,50.30
2017-06-18T21:11:29.002Z,50.20
2017-06-18T21:13:56.654Z,50.30
2017-06-18T21:16:24.341Z,50.40
2017-06-18T21:18:51.990Z,50.50
2017-06-18T21:21:19.752Z,50.80
2017-06-18T21:23:47.425Z,51.10
2017-06-18T21:26:15.046Z,51.30
2017-06-18T21:28:42.759Z,51.20
2017-06-18T21:31:10.502Z,51.30
2017-06-18T21:33:38.121Z,51.10
2017-06-18T21:36:05.821Z,51.20
2017-06-18T21:38:33.602Z,51.20
2017-06-18T21:41:01.234Z,51.40
2017-06-18T21:43:28.941Z,51.40
2017-06-18T21:45:56.566Z,51.40
2017-06-18T21:48:24.251Z,51.60
2017-06-18T21:50:52.001Z,51.70
2017-06-18T21:53:19.763Z,51.80
2017-06-18T21:55:47.409Z,51.80
2017-06-18T21:58:15.105Z,51.80
2017-06-18T22:00:42.874Z,51.80
2017-06-18T22:03:10.529Z,52.00
2017-06-18T22:05:38.149Z,52.00
2017-06-18T22:08:05.793Z,52.10
2017-06-18T22:10:33.805Z,52.20
2017-06-18T22:13:01.674Z,52.20
2017-06-18T22:15:29.294Z,52.20
2017-06-18T22:17:56.918Z,52.50
2017-06-18T22:20:24.579Z,52.40
2017-06-18T22:22:52.345Z,52.40
2017-06-18T22:25:20.014Z,52.40
2017-06-18T22:27:47.749Z,52.60
2017-06-18T22:30:15.402Z,52.50
2017-06-18T22:32:43.067Z,52.70
2017-06-18T22:35:10.747Z,52.70
2017-06-18T22:37:38.599Z,53.00
2017-06-18T22:40:06.231Z,53.10
2017-06-18T22:42:34.025Z,53.90
2017-06-18T22:45:01.789Z,53.30
2017-06-18T22:47:29.410Z,53.50
2017-06-18T22:49:58.428Z,53.40
2017-06-18T22:52:26.312Z,53.30
2017-06-18T22:54:53.989Z,53.30
2017-06-18T22:57:21.839Z,53.30
2017-06-18T22:59:49.601Z,53.30
2017-06-18T23:02:17.381Z,53.20
2017-06-18T23:04:45.140Z,53.40
2017-06-18T23:07:12.999Z,53.50
2017-06-18T23:09:40.648Z,53.40
2017-06-18T23:12:08.527Z,53.40
2017-06-18T23:14:36.395Z,53.50
2017-06-18T23:17:04.021Z,53.40
2017-06-18T23:19:31.637Z,53.20
2017-06-18T23:21:59.404Z,53.30
2017-06-18T23:24:27.029Z,53.50
2017-06-18T23:26:54.828Z,53.50
2017-06-18T23:29:22.671Z,53.60
2017-06-18T23:31:50.295Z,53.50
2017-06-18T23:34:18.021Z,53.50
2017-06-18T23:36:45.641Z,53.60
2017-06-18T23:39:13.422Z,53.60
2017-06-18T23:41:41.037Z,53.70
2017-06-18T23:44:08.661Z,53.80
2017-06-18T23:46:36.404Z,54.00
2017-06-18T23:49:04.024Z,53.90
2017-06-18T23:51:31.707Z,54.00
2017-06-18T23:53:59.411Z,54.10
2017-06-18T23:56:27.053Z,54.00
2017-06-18T23:58:54.729Z,54.20
